sensor_id;sensor_type;location;lat;lon;timestamp;pressure;altitude;pressure_sealevel;temperature;humidity
65190;BME280;51777;53.570;9.984;2023-03-01T00:00:14;102912.09;;;3.16;100.00
65190;BME280;51777;53.570;9.984;2023-03-01T00:02:40;102918.94;;;3.15;100.00
65190;BME280;51777;53.570;9.984;2023-03-01T00:05:05;102916.44;;;3.14;100.00
65190;BME280;51777;53.570;9.984;2023-03-01T00:07:32;102913.88;;;3.14;100.00
65190;BME280;51777;53.570;9.984;2023-03-01T00:09:58;102915.53;;;3.15;100.00
65190;BME280;51777;53.570;9.984;2023-03-01T00:12:23;102919.72;;;3.17;100.00
65190;BME280;51777;53.570;9.984;2023-03-01T00:14:49;102907.81;;;3.16;100.00
65190;BME280;51777;53.570;9.984;2023-03-01T00:17:14;102910.44;;;3.15;100.00
65190;BME280;51777;53.570;9.984;2023-03-01T00:19:39;102909.53;;;3.16;100.00
65190;BME280;51777;53.570;9.984;2023-03-01T00:22:05;102903.66;;;3.14;100.00
65190;BME280;51777;53.570;9.984;2023-03-01T00:24:30;102898.59;;;3.12;100.00
65190;BME280;51777;53.570;9.984;2023-03-01T00:26:56;102899.03;;;2.95;100.00
65190;BME280;51777;53.570;9.984;2023-03-01T00:29:23;102897.38;;;2.94;100.00
65190;BME280;51777;53.570;9.984;2023-03-01T00:31:49;102895.88;;;2.87;100.00
65190;BME280;51777;53.570;9.984;2023-03-01T00:34:15;102906.09;;;2.87;100.00
65190;BME280;51777;53.570;9.984;2023-03-01T00:36:40;102906.09;;;2.87;100.00
65190;BME280;51777;53.570;9.984;2023-03-01T00:39:10;102911.13;;;2.90;100.00
65190;BME280;51777;53.570;9.984;2023-03-01T00:41:36;102908.56;;;2.90;100.00
65190;BME280;51777;53.570;9.984;2023-03-01T00:44:02;102905.22;;;2.88;100.00
65190;BME280;51777;53.570;9.984;2023-03-01T00:46:27;102898.34;;;2.90;100.00
65190;BME280;51777;53.570;9.984;2023-03-01T00:48:55;102901.69;;;2.92;100.00
65190;BME280;51777;53.570;9.984;2023-03-01T00:51:24;102895.94;;;2.84;100.00
65190;BME280;51777;53.570;9.984;2023-03-01T00:53:52;102891.72;;;2.83;100.00
65190;BME280;51777;53.570;9.984;2023-03-01T00:56:17;102891.81;;;2.80;100.00
65190;BME280;51777;53.570;9.984;2023-03-01T00:58:43;102895.94;;;2.84;100.00
65190;BME280;51777;53.570;9.984;2023-03-01T01:01:11;102894.38;;;2.80;100.00
65190;BME280;51777;53.570;9.984;2023-03-01T01:03:49;102900.50;;;2.75;100.00
65190;BME280;51777;53.570;9.984;2023-03-01T01:06:18;102894.50;;;2.76;100.00
65190;BME280;51777;53.570;9.984;2023-03-01T01:08:43;102890.34;;;2.72;100.00
65190;BME280;51777;53.570;9.984;2023-03-01T01:11:10;102891.94;;;2.76;100.00
65190;BME280;51777;53.570;9.984;2023-03-01T01:13:36;102880.94;;;2.74;100.00
65190;BME280;51777;53.570;9.984;2023-03-01T01:16:02;102877.56;;;2.73;100.00
65190;BME280;51777;53.570;9.984;2023-03-01T01:18:28;102879.09;;;2.79;100.00
65190;BME280;51777;53.570;9.984;2023-03-01T01:20:53;102877.22;;;2.84;100.00
65190;BME280;51777;53.570;9.984;2023-03-01T01:23:18;102872.34;;;2.76;100.00
65190;BME280;51777;53.570;9.984;2023-03-01T01:25:44;102873.47;;;2.66;100.00
65190;BME280;51777;53.570;9.984;2023-03-01T01:28:09;102872.69;;;2.64;100.00
65190;BME280;51777;53.570;9.984;2023-03-01T01:30:35;102874.19;;;2.71;100.00
65190;BME280;51777;53.570;9.984;2023-03-01T01:33:01;102879.22;;;2.74;100.00
65190;BME280;51777;53.570;9.984;2023-03-01T01:35:27;102870.72;;;2.74;100.00
65190;BME280;51777;53.570;9.984;2023-03-01T01:37:52;102874.19;;;2.71;100.00
65190;BME280;51777;53.570;9.984;2023-03-01T01:40:18;102866.47;;;2.73;100.00
65190;BME280;51777;53.570;9.984;2023-03-01T01:42:44;102866.47;;;2.73;100.00
65190;BME280;51777;53.570;9.984;2023-03-01T01:45:36;102863.22;;;2.68;100.00
65190;BME280;51777;53.570;9.984;2023-03-01T01:48:09;102863.16;;;2.69;100.00
65190;BME280;51777;53.570;9.984;2023-03-01T01:50:39;102865.03;;;2.64;100.00
65190;BME280;51777;53.570;9.984;2023-03-01T01:53:15;102853.69;;;2.74;100.00
65190;BME280;51777;53.570;9.984;2023-03-01T01:55:45;102851.91;;;2.76;100.00
65190;BME280;51777;53.570;9.984;2023-03-01T01:58:16;102857.28;;;2.67;100.00
65190;BME280;51777;53.570;9.984;2023-03-01T02:00:43;102851.81;;;2.79;100.00
65190;BME280;51777;53.570;9.984;2023-03-01T02:03:14;102846.50;;;2.87;100.00
65190;BME280;51777;53.570;9.984;2023-03-01T02:05:52;102847.34;;;2.87;100.00
65190;BME280;51777;53.570;9.984;2023-03-01T02:08:23;102843.91;;;2.88;100.00
65190;BME280;51777;53.570;9.984;2023-03-01T02:10:51;102839.06;;;2.79;100.00
65190;BME280;51777;53.570;9.984;2023-03-01T02:13:17;102835.81;;;2.74;100.00
65190;BME280;51777;53.570;9.984;2023-03-01T02:15:43;102835.06;;;2.69;100.00
65190;BME280;51777;53.570;9.984;2023-03-01T02:18:14;102834.38;;;2.64;100.00
65190;BME280;51777;53.570;9.984;2023-03-01T02:23:14;102837.97;;;2.57;100.00
65190;BME280;51777;53.570;9.984;2023-03-01T02:28:32;102841.31;;;2.59;100.00
65190;BME280;51777;53.570;9.984;2023-03-01T02:30:58;102833.59;;;2.62;100.00
65190;BME280;51777;53.570;9.984;2023-03-01T02:33:43;102832.66;;;2.64;100.00
65190;BME280;51777;53.570;9.984;2023-03-01T02:36:14;102831.72;;;2.67;100.00
65190;BME280;51777;53.570;9.984;2023-03-01T02:38:41;102837.63;;;2.69;100.00
65190;BME280;51777;53.570;9.984;2023-03-01T02:41:10;102833.25;;;2.73;100.00
65190;BME280;51777;53.570;9.984;2023-03-01T02:43:38;102834.13;;;2.73;100.00
65190;BME280;51777;53.570;9.984;2023-03-01T02:46:13;102835.81;;;2.74;100.00
65190;BME280;51777;53.570;9.984;2023-03-01T02:48:41;102838.34;;;2.74;100.00
65190;BME280;51777;53.570;9.984;2023-03-01T02:56:35;102816.28;;;2.72;100.00
65190;BME280;51777;53.570;9.984;2023-03-01T02:59:01;102825.69;;;2.70;100.00
65190;BME280;51777;53.570;9.984;2023-03-01T03:01:28;102810.50;;;2.65;100.00
65190;BME280;51777;53.570;9.984;2023-03-01T03:04:07;102817.53;;;2.57;100.00
65190;BME280;51777;53.570;9.984;2023-03-01T03:06:35;102818.53;;;2.53;100.00
65190;BME280;51777;53.570;9.984;2023-03-01T03:09:01;102819.41;;;2.52;100.00
65190;BME280;51777;53.570;9.984;2023-03-01T03:11:27;102817.78;;;2.49;100.00
65190;BME280;51777;53.570;9.984;2023-03-01T03:13:52;102817.00;;;2.46;100.00
65190;BME280;51777;53.570;9.984;2023-03-01T03:16:19;102814.44;;;2.46;100.00
65190;BME280;51777;53.570;9.984;2023-03-01T03:18:44;102821.22;;;2.48;100.00
65190;BME280;51777;53.570;9.984;2023-03-01T03:21:11;102812.69;;;2.48;100.00
65190;BME280;51777;53.570;9.984;2023-03-01T03:23:37;102816.00;;;2.51;100.00
65190;BME280;51777;53.570;9.984;2023-03-01T03:26:04;102816.00;;;2.51;100.00
65190;BME280;51777;53.570;9.984;2023-03-01T03:28:34;102812.72;;;2.46;100.00
65190;BME280;51777;53.570;9.984;2023-03-01T03:31:00;102821.94;;;2.52;100.00
65190;BME280;51777;53.570;9.984;2023-03-01T03:33:32;102813.31;;;2.56;100.00
65190;BME280;51777;53.570;9.984;2023-03-01T03:35:58;102804.69;;;2.60;100.00
65190;BME280;51777;53.570;9.984;2023-03-01T03:38:23;102802.06;;;2.63;100.00
65190;BME280;51777;53.570;9.984;2023-03-01T03:40:52;102803.59;;;2.69;100.00
65190;BME280;51777;53.570;9.984;2023-03-01T03:43:20;102811.94;;;2.75;100.00
65190;BME280;51777;53.570;9.984;2023-03-01T03:45:48;102798.97;;;2.81;100.00
65190;BME280;51777;53.570;9.984;2023-03-01T03:48:14;102805.69;;;2.85;100.00
65190;BME280;51777;53.570;9.984;2023-03-01T03:50:41;102794.47;;;2.89;100.00
65190;BME280;51777;53.570;9.984;2023-03-01T03:53:09;102802.03;;;2.92;100.00
65190;BME280;51777;53.570;9.984;2023-03-01T03:55:36;102798.56;;;2.95;100.00
65190;BME280;51777;53.570;9.984;2023-03-01T03:58:08;102794.22;;;2.99;100.00
65190;BME280;51777;53.570;9.984;2023-03-01T04:00:42;102799.22;;;3.02;100.00
65190;BME280;51777;53.570;9.984;2023-03-01T04:03:09;102787.22;;;3.04;100.00
65190;BME280;51777;53.570;9.984;2023-03-01T04:05:37;102788.03;;;3.06;100.00
65190;BME280;51777;53.570;9.984;2023-03-01T04:08:03;102787.91;;;3.09;100.00
65190;BME280;51777;53.570;9.984;2023-03-01T04:10:36;102783.75;;;3.06;100.00
65190;BME280;51777;53.570;9.984;2023-03-01T04:13:03;102783.63;;;3.11;100.00
65190;BME280;51777;53.570;9.984;2023-03-01T04:15:30;102784.63;;;3.05;100.00
65190;BME280;51777;53.570;9.984;2023-03-01T04:17:55;102776.34;;;2.99;100.00
65190;BME280;51777;53.570;9.984;2023-03-01T04:20:27;102782.19;;;3.02;100.00
65190;BME280;51777;53.570;9.984;2023-03-01T04:23:06;102779.47;;;3.07;100.00
65190;BME280;51777;53.570;9.984;2023-03-01T04:25:45;102776.22;;;3.02;100.00
65190;BME280;51777;53.570;9.984;2023-03-01T04:28:11;102775.19;;;3.07;100.00
65190;BME280;51777;53.570;9.984;2023-03-01T04:30:38;102779.16;;;3.17;100.00
65190;BME280;51777;53.570;9.984;2023-03-01T04:33:08;102779.75;;;3.26;100.00
65190;BME280;51777;53.570;9.984;2023-03-01T04:35:35;102784.66;;;3.32;100.00
65190;BME280;51777;53.570;9.984;2023-03-01T04:38:00;102781.22;;;3.33;100.00
65190;BME280;51777;53.570;9.984;2023-03-01T04:40:26;102789.59;;;3.38;100.00
65190;BME280;51777;53.570;9.984;2023-03-01T04:42:52;102785.22;;;3.41;100.00
65190;BME280;51777;53.570;9.984;2023-03-01T04:45:17;102785.31;;;3.38;100.00
65190;BME280;51777;53.570;9.984;2023-03-01T04:47:44;102782.44;;;3.21;100.00
65190;BME280;51777;53.570;9.984;2023-03-01T04:50:13;102786.59;;;3.25;100.00
65190;BME280;51777;53.570;9.984;2023-03-01T04:52:39;102782.94;;;3.32;100.00
65190;BME280;51777;53.570;9.984;2023-03-01T04:55:05;102782.75;;;3.38;100.00
65190;BME280;51777;53.570;9.984;2023-03-01T04:57:31;102788.59;;;3.42;100.00
65190;BME280;51777;53.570;9.984;2023-03-01T04:59:57;102783.38;;;3.45;100.00
65190;BME280;51777;53.570;9.984;2023-03-01T05:02:22;102784.31;;;3.42;100.00
65190;BME280;51777;53.570;9.984;2023-03-01T05:04:48;102786.78;;;3.45;100.00
65190;BME280;51777;53.570;9.984;2023-03-01T05:07:14;102780.81;;;3.45;100.00
65190;BME280;51777;53.570;9.984;2023-03-01T05:09:45;102785.09;;;3.44;100.00
65190;BME280;51777;53.570;9.984;2023-03-01T05:12:11;102775.66;;;3.46;100.00
65190;BME280;51777;53.570;9.984;2023-03-01T05:14:36;102774.03;;;3.44;100.00
65190;BME280;51777;53.570;9.984;2023-03-01T05:17:03;102774.88;;;3.44;100.00
65190;BME280;51777;53.570;9.984;2023-03-01T05:19:29;102772.25;;;3.46;100.00
65190;BME280;51777;53.570;9.984;2023-03-01T05:21:56;102771.44;;;3.45;100.00
65190;BME280;51777;53.570;9.984;2023-03-01T05:24:30;102775.03;;;3.40;100.00
65190;BME280;51777;53.570;9.984;2023-03-01T05:26:56;102777.69;;;3.37;100.00
65190;BME280;51777;53.570;9.984;2023-03-01T05:29:23;102790.44;;;3.38;100.00
65190;BME280;51777;53.570;9.984;2023-03-01T05:31:54;102784.38;;;3.41;100.00
65190;BME280;51777;53.570;9.984;2023-03-01T05:34:27;102779.25;;;3.41;100.00
65190;BME280;51777;53.570;9.984;2023-03-01T05:36:53;102788.44;;;3.46;100.00
65190;BME280;51777;53.570;9.984;2023-03-01T05:39:21;102781.59;;;3.48;100.00
65190;BME280;51777;53.570;9.984;2023-03-01T05:41:47;102778.13;;;3.49;100.00
65190;BME280;51777;53.570;9.984;2023-03-01T05:44:13;102773.03;;;3.49;100.00
65190;BME280;51777;53.570;9.984;2023-03-01T05:46:38;102775.63;;;3.48;100.00
65190;BME280;51777;53.570;9.984;2023-03-01T05:49:04;102767.16;;;3.46;100.00
65190;BME280;51777;53.570;9.984;2023-03-01T05:51:30;102754.34;;;3.47;100.00
65190;BME280;51777;53.570;9.984;2023-03-01T05:53:56;102764.81;;;3.40;100.00
65190;BME280;51777;53.570;9.984;2023-03-01T05:56:21;102755.47;;;3.39;100.00
65190;BME280;51777;53.570;9.984;2023-03-01T05:58:50;102756.97;;;3.44;100.00
65190;BME280;51777;53.570;9.984;2023-03-01T06:01:15;102761.97;;;3.49;100.00
65190;BME280;51777;53.570;9.984;2023-03-01T06:03:41;102756.69;;;3.53;100.00
65190;BME280;51777;53.570;9.984;2023-03-01T06:06:06;102752.69;;;3.45;100.00
65190;BME280;51777;53.570;9.984;2023-03-01T06:08:32;102757.88;;;3.43;100.00
65190;BME280;51777;53.570;9.984;2023-03-01T06:10:57;102753.03;;;3.34;100.00
65190;BME280;51777;53.570;9.984;2023-03-01T06:13:24;102760.81;;;3.31;100.00
65190;BME280;51777;53.570;9.984;2023-03-01T06:15:49;102754.19;;;3.26;100.00
65190;BME280;51777;53.570;9.984;2023-03-01T06:18:15;102757.63;;;3.24;100.00
65190;BME280;51777;53.570;9.984;2023-03-01T06:20:40;102754.19;;;3.26;100.00
65190;BME280;51777;53.570;9.984;2023-03-01T06:23:06;102758.59;;;3.20;100.00
65190;BME280;51777;53.570;9.984;2023-03-01T06:25:31;102758.41;;;3.27;100.00
65190;BME280;51777;53.570;9.984;2023-03-01T06:27:57;102757.38;;;3.32;100.00
65190;BME280;51777;53.570;9.984;2023-03-01T06:30:24;102744.50;;;3.35;100.00
65190;BME280;51777;53.570;9.984;2023-03-01T06:32:51;102749.41;;;3.41;100.00
65190;BME280;51777;53.570;9.984;2023-03-01T06:35:17;102752.69;;;3.45;100.00
65190;BME280;51777;53.570;9.984;2023-03-01T06:37:44;102750.91;;;3.48;100.00
65190;BME280;51777;53.570;9.984;2023-03-01T06:40:11;102755.25;;;3.45;100.00
65190;BME280;51777;53.570;9.984;2023-03-01T06:42:38;102763.47;;;3.54;100.00
65190;BME280;51777;53.570;9.984;2023-03-01T06:45:05;102767.50;;;3.62;100.00
65190;BME280;51777;53.570;9.984;2023-03-01T06:47:31;102758.72;;;3.69;100.00
65190;BME280;51777;53.570;9.984;2023-03-01T06:49:58;102762.47;;;3.59;100.00
65190;BME280;51777;53.570;9.984;2023-03-01T06:52:24;102773.25;;;3.68;100.00
65190;BME280;51777;53.570;9.984;2023-03-01T06:54:50;102778.06;;;3.77;100.00
65190;BME280;51777;53.570;9.984;2023-03-01T06:57:15;102772.94;;;3.77;100.00
65190;BME280;51777;53.570;9.984;2023-03-01T06:59:41;102773.66;;;3.81;100.00
65190;BME280;51777;53.570;9.984;2023-03-01T07:02:08;102772.00;;;3.80;100.00
65190;BME280;51777;53.570;9.984;2023-03-01T07:04:34;102775.25;;;3.85;100.00
65190;BME280;51777;53.570;9.984;2023-03-01T07:07:00;102772.59;;;3.88;100.00
65190;BME280;51777;53.570;9.984;2023-03-01T07:09:26;102769.72;;;3.97;100.00
65190;BME280;51777;53.570;9.984;2023-03-01T07:11:51;102773.66;;;4.06;100.00
65190;BME280;51777;53.570;9.984;2023-03-01T07:14:17;102770.16;;;4.08;100.00
65190;BME280;51777;53.570;9.984;2023-03-01T07:16:42;102769.94;;;4.15;100.00
65190;BME280;51777;53.570;9.984;2023-03-01T07:19:08;102763.75;;;4.22;100.00
65190;BME280;51777;53.570;9.984;2023-03-01T07:21:33;102759.22;;;4.28;100.00
65190;BME280;51777;53.570;9.984;2023-03-01T07:23:59;102757.50;;;4.29;100.00
65190;BME280;51777;53.570;9.984;2023-03-01T07:26:24;102750.59;;;4.31;100.00
65190;BME280;51777;53.570;9.984;2023-03-01T07:28:50;102750.31;;;4.38;100.00
65190;BME280;51777;53.570;9.984;2023-03-01T07:31:15;102746.59;;;4.47;100.00
65190;BME280;51777;53.570;9.984;2023-03-01T07:33:40;102745.47;;;4.54;100.00
65190;BME280;51777;53.570;9.984;2023-03-01T07:36:06;102745.00;;;4.66;100.00
65190;BME280;51777;53.570;9.984;2023-03-01T07:38:32;102749.66;;;4.79;100.00
65190;BME280;51777;53.570;9.984;2023-03-01T07:40:59;102754.06;;;4.75;100.00
65190;BME280;51777;53.570;9.984;2023-03-01T07:43:25;102746.59;;;4.69;100.00
65190;BME280;51777;53.570;9.984;2023-03-01T07:45:51;102745.00;;;4.66;100.00
65190;BME280;51777;53.570;9.984;2023-03-01T07:48:17;102750.44;;;4.81;100.00
65190;BME280;51777;53.570;9.984;2023-03-01T07:50:42;102747.53;;;4.90;100.00
65190;BME280;51777;53.570;9.984;2023-03-01T07:53:09;102750.16;;;5.10;100.00
65190;BME280;51777;53.570;9.984;2023-03-01T07:55:34;102748.03;;;5.20;100.00
65190;BME280;51777;53.570;9.984;2023-03-01T07:57:59;102744.63;;;5.41;100.00
65190;BME280;51777;53.570;9.984;2023-03-01T08:00:25;102753.94;;;5.84;100.00
65190;BME280;51777;53.570;9.984;2023-03-01T08:02:50;102749.22;;;6.14;100.00
65190;BME280;51777;53.570;9.984;2023-03-01T08:05:16;102754.94;;;7.14;100.00
65190;BME280;51777;53.570;9.984;2023-03-01T08:07:42;102752.28;;;8.35;100.00
65190;BME280;51777;53.570;9.984;2023-03-01T08:10:08;102767.38;;;7.40;100.00
65190;BME280;51777;53.570;9.984;2023-03-01T08:12:34;102770.16;;;6.63;100.00
65190;BME280;51777;53.570;9.984;2023-03-01T08:15:01;102764.53;;;6.36;100.00
65190;BME280;51777;53.570;9.984;2023-03-01T08:17:28;102765.63;;;5.92;100.00
65190;BME280;51777;53.570;9.984;2023-03-01T08:19:55;102772.31;;;5.96;100.00
65190;BME280;51777;53.570;9.984;2023-03-01T08:22:20;102767.81;;;6.01;100.00
65190;BME280;51777;53.570;9.984;2023-03-01T08:24:47;102766.63;;;6.47;100.00
65190;BME280;51777;53.570;9.984;2023-03-01T08:27:15;102770.84;;;6.67;100.00
65190;BME280;51777;53.570;9.984;2023-03-01T08:29:40;102767.44;;;6.85;100.00
65190;BME280;51777;53.570;9.984;2023-03-01T08:32:05;102765.91;;;7.17;100.00
65190;BME280;51777;53.570;9.984;2023-03-01T08:34:31;102764.03;;;7.55;100.00
65190;BME280;51777;53.570;9.984;2023-03-01T08:36:57;102766.00;;;7.68;100.00
65190;BME280;51777;53.570;9.984;2023-03-01T08:39:22;102777.34;;;7.81;100.00
65190;BME280;51777;53.570;9.984;2023-03-01T08:41:48;102763.22;;;8.05;100.00
65190;BME280;51777;53.570;9.984;2023-03-01T08:44:14;102761.06;;;9.09;100.00
65190;BME280;51777;53.570;9.984;2023-03-01T08:46:43;102765.03;;;9.15;100.00
65190;BME280;51777;53.570;9.984;2023-03-01T08:49:14;102778.25;;;12.39;100.00
65190;BME280;51777;53.570;9.984;2023-03-01T08:51:41;102785.53;;;14.44;100.00
65190;BME280;51777;53.570;9.984;2023-03-01T08:54:11;102780.97;;;11.73;100.00
65190;BME280;51777;53.570;9.984;2023-03-01T08:56:37;102778.44;;;10.94;100.00
65190;BME280;51777;53.570;9.984;2023-03-01T08:59:03;102786.19;;;12.61;100.00
65190;BME280;51777;53.570;9.984;2023-03-01T09:01:29;102793.63;;;12.78;100.00
65190;BME280;51777;53.570;9.984;2023-03-01T09:03:54;102792.94;;;11.36;100.00
65190;BME280;51777;53.570;9.984;2023-03-01T09:06:20;102786.78;;;10.85;100.00
65190;BME280;51777;53.570;9.984;2023-03-01T09:08:48;102780.09;;;9.97;100.00
65190;BME280;51777;53.570;9.984;2023-03-01T09:11:17;102771.94;;;9.30;100.00
65190;BME280;51777;53.570;9.984;2023-03-01T09:13:44;102774.75;;;8.64;100.00
65190;BME280;51777;53.570;9.984;2023-03-01T09:16:11;102768.66;;;8.16;100.00
65190;BME280;51777;53.570;9.984;2023-03-01T09:18:37;102774.34;;;8.23;100.00
65190;BME280;51777;53.570;9.984;2023-03-01T09:21:03;102770.19;;;8.20;100.00
65190;BME280;51777;53.570;9.984;2023-03-01T09:23:33;102775.91;;;7.92;100.00
65190;BME280;51777;53.570;9.984;2023-03-01T09:25:59;102780.28;;;8.08;100.00
65190;BME280;51777;53.570;9.984;2023-03-01T09:28:25;102771.16;;;8.18;100.00
65190;BME280;51777;53.570;9.984;2023-03-01T09:30:50;102777.22;;;8.34;100.00
65190;BME280;51777;53.570;9.984;2023-03-01T09:33:15;102784.31;;;8.29;100.00
65190;BME280;51777;53.570;9.984;2023-03-01T09:35:41;102775.53;;;8.33;100.00
65190;BME280;51777;53.570;9.984;2023-03-01T09:38:12;102777.81;;;8.55;100.00
65190;BME280;51777;53.570;9.984;2023-03-01T09:40:43;102770.84;;;8.57;100.00
65190;BME280;51777;53.570;9.984;2023-03-01T09:43:41;102778.00;;;8.83;100.00
65190;BME280;51777;53.570;9.984;2023-03-01T09:46:11;102774.22;;;9.05;100.00
65190;BME280;51777;53.570;9.984;2023-03-01T09:48:43;102775.28;;;9.91;100.00
65190;BME280;51777;53.570;9.984;2023-03-01T09:51:16;102777.34;;;10.28;100.00
65190;BME280;51777;53.570;9.984;2023-03-01T09:53:44;102781.59;;;11.64;100.00
65190;BME280;51777;53.570;9.984;2023-03-01T09:56:33;102794.91;;;11.98;100.00
65190;BME280;51777;53.570;9.984;2023-03-01T10:05:34;102797.47;;;16.76;100.00
65190;BME280;51777;53.570;9.984;2023-03-01T10:10:37;102791.56;;;16.84;100.00
65190;BME280;51777;53.570;9.984;2023-03-01T10:13:13;102798.63;;;17.88;100.00
65190;BME280;51777;53.570;9.984;2023-03-01T10:15:53;102800.03;;;17.73;100.00
65190;BME280;51777;53.570;9.984;2023-03-01T10:18:22;102807.63;;;17.76;100.00
65190;BME280;51777;53.570;9.984;2023-03-01T10:20:55;102805.09;;;17.84;100.00
65190;BME280;51777;53.570;9.984;2023-03-01T10:23:24;102810.69;;;18.36;100.00
65190;BME280;51777;53.570;9.984;2023-03-01T10:31:25;102802.88;;;18.26;100.00
65190;BME280;51777;53.570;9.984;2023-03-01T10:33:53;102805.16;;;18.39;100.00
65190;BME280;51777;53.570;9.984;2023-03-01T10:36:21;102801.78;;;18.92;100.00
65190;BME280;51777;53.570;9.984;2023-03-01T10:38:49;102806.50;;;18.70;100.00
65190;BME280;51777;53.570;9.984;2023-03-01T10:41:17;102795.63;;;18.10;100.00
65190;BME280;51777;53.570;9.984;2023-03-01T10:46:26;102791.63;;;15.82;100.00
65190;BME280;51777;53.570;9.984;2023-03-01T10:49:18;102790.59;;;15.74;100.00
65190;BME280;51777;53.570;9.984;2023-03-01T10:51:46;102792.69;;;15.59;100.00
65190;BME280;51777;53.570;9.984;2023-03-01T10:54:20;102789.53;;;15.76;100.00
65190;BME280;51777;53.570;9.984;2023-03-01T10:56:49;102788.56;;;15.56;100.00
65190;BME280;51777;53.570;9.984;2023-03-01T10:59:38;102782.03;;;15.41;100.00
65190;BME280;51777;53.570;9.984;2023-03-01T11:04:56;102767.94;;;14.14;100.00
65190;BME280;51777;53.570;9.984;2023-03-01T11:07:22;102767.13;;;14.79;100.00
65190;BME280;51777;53.570;9.984;2023-03-01T11:09:48;102767.44;;;14.86;100.00
65190;BME280;51777;53.570;9.984;2023-03-01T11:12:15;102760.28;;;15.52;100.00
65190;BME280;51777;53.570;9.984;2023-03-01T11:14:50;102761.06;;;15.11;100.00
65190;BME280;51777;53.570;9.984;2023-03-01T11:17:27;102758.94;;;15.16;100.00
65190;BME280;51777;53.570;9.984;2023-03-01T11:22:46;102761.22;;;16.42;100.00
65190;BME280;51777;53.570;9.984;2023-03-01T11:25:14;102760.47;;;17.10;100.00
65190;BME280;51777;53.570;9.984;2023-03-01T11:27:44;102761.66;;;17.44;100.00
65190;BME280;51777;53.570;9.984;2023-03-01T11:35:38;102767.56;;;18.93;100.00
65190;BME280;51777;53.570;9.984;2023-03-01T11:38:22;102761.25;;;18.51;100.00
65190;BME280;51777;53.570;9.984;2023-03-01T11:40:52;102753.66;;;18.47;100.00
65190;BME280;51777;53.570;9.984;2023-03-01T11:43:37;102753.53;;;17.94;100.00
65190;BME280;51777;53.570;9.984;2023-03-01T11:52:17;102747.09;;;16.55;100.00
65190;BME280;51777;53.570;9.984;2023-03-01T12:03:42;102732.19;;;15.86;100.00
65190;BME280;51777;53.570;9.984;2023-03-01T12:06:04;102727.47;;;16.10;100.00
65190;BME280;51777;53.570;9.984;2023-03-01T12:08:37;102728.00;;;16.73;100.00
65190;BME280;51777;53.570;9.984;2023-03-01T12:13:56;102729.88;;;17.39;100.00
65190;BME280;51777;53.570;9.984;2023-03-01T12:17:11;102729.78;;;17.78;100.00
65190;BME280;51777;53.570;9.984;2023-03-01T12:19:45;102722.06;;;17.86;100.00
65190;BME280;51777;53.570;9.984;2023-03-01T12:22:32;102727.44;;;18.12;100.00
65190;BME280;51777;53.570;9.984;2023-03-01T12:39:32;102696.72;;;17.30;100.00
65190;BME280;51777;53.570;9.984;2023-03-01T12:50:17;102676.13;;;17.08;100.00
65190;BME280;51777;53.570;9.984;2023-03-01T12:52:47;102677.41;;;15.86;100.00
65190;BME280;51777;53.570;9.984;2023-03-01T12:55:31;102675.13;;;14.58;100.00
65190;BME280;51777;53.570;9.984;2023-03-01T12:58:31;102662.66;;;14.61;100.00
65190;BME280;51777;53.570;9.984;2023-03-01T13:06:37;102656.22;;;13.68;100.00
65190;BME280;51777;53.570;9.984;2023-03-01T13:12:02;102647.28;;;12.68;100.00
65190;BME280;51777;53.570;9.984;2023-03-01T13:16:56;102642.09;;;12.68;100.00
65190;BME280;51777;53.570;9.984;2023-03-01T13:21:49;102637.09;;;12.54;100.00
65190;BME280;51777;53.570;9.984;2023-03-01T13:24:46;102642.00;;;13.16;100.00
65190;BME280;51777;53.570;9.984;2023-03-01T13:27:22;102641.81;;;13.52;100.00
65190;BME280;51777;53.570;9.984;2023-03-01T13:29:59;102636.81;;;13.38;100.00
65190;BME280;51777;53.570;9.984;2023-03-01T13:32:33;102635.69;;;12.61;100.00
65190;BME280;51777;53.570;9.984;2023-03-01T13:35:40;102629.63;;;12.49;100.00
65190;BME280;51777;53.570;9.984;2023-03-01T13:38:38;102631.16;;;12.52;100.00
65190;BME280;51777;53.570;9.984;2023-03-01T13:41:07;102628.06;;;12.47;100.00
65190;BME280;51777;53.570;9.984;2023-03-01T13:43:36;102619.13;;;12.51;100.00
65190;BME280;51777;53.570;9.984;2023-03-01T13:46:23;102619.03;;;12.28;100.00
65190;BME280;51777;53.570;9.984;2023-03-01T13:48:51;102620.91;;;11.90;100.00
65190;BME280;51777;53.570;9.984;2023-03-01T13:51:23;102613.38;;;11.61;100.00
65190;BME280;51777;53.570;9.984;2023-03-01T13:53:50;102606.78;;;11.44;100.00
65190;BME280;51777;53.570;9.984;2023-03-01T13:56:20;102609.88;;;11.37;100.00
65190;BME280;51777;53.570;9.984;2023-03-01T13:58:55;102613.41;;;11.10;100.00
65190;BME280;51777;53.570;9.984;2023-03-01T14:01:34;102617.41;;;10.89;100.00
65190;BME280;51777;53.570;9.984;2023-03-01T14:04:00;102618.91;;;10.66;100.00
65190;BME280;51777;53.570;9.984;2023-03-01T14:06:28;102612.53;;;10.72;100.00
65190;BME280;51777;53.570;9.984;2023-03-01T14:09:10;102606.75;;;10.68;100.00
65190;BME280;51777;53.570;9.984;2023-03-01T14:20:12;102583.59;;;9.98;100.00
65190;BME280;51777;53.570;9.984;2023-03-01T14:22:41;102570.88;;;9.95;100.00
65190;BME280;51777;53.570;9.984;2023-03-01T14:25:21;102574.28;;;9.96;100.00
65190;BME280;51777;53.570;9.984;2023-03-01T14:27:54;102576.25;;;9.92;100.00
65190;BME280;51777;53.570;9.984;2023-03-01T14:30:42;102573.72;;;9.91;100.00
65190;BME280;51777;53.570;9.984;2023-03-01T14:33:33;102577.69;;;9.55;100.00
65190;BME280;51777;53.570;9.984;2023-03-01T14:36:05;102570.66;;;9.57;100.00
65190;BME280;51777;53.570;9.984;2023-03-01T14:38:44;102576.19;;;9.51;100.00